Mill Village, Vermont
Current Conditions -  °F | °C
As of 12:54 AM on Friday 31 Oct 2014 (Local Time) from KMVL Reporting Station
Overcast Overcast  
Wind Chill: 41°   Ceiling: 4400
Heat Index: 41°   Visibility: 10mi
Dew Point: 31°   Wind: 3mph
Humidity: 67%   Direction: 10°N
Pressure: 30.02"   Gusts: NA
Location:  44.6584°N, 72.4169°W
Report Text: KMVL 310454Z AUTO 01003KT 10SM OVC044 05/M01 A3002 RMK AO2 SLP172 T00501006 400940050
Loading
Personal Weather Stations






























Interactive Weather Map
Tropical Storm Tracking
New forecast layout! Learn more

10-Day Weather Forecast

Advertisements
Track Severe Weather on mobile